Time;durP1;ratioP1;P1;durP2;ratioP2;P2;SDS_P1;SDS_P2;PMS_P1;PMS_P2;Temp;Humidity;BMP_temperature;BMP_pressure;BME280_temperature;BME280_humidity;BME280_pressure;Samples;Min_cycle;Max_cycle;Signal;HPM_P1;HPM_P2
2022/12/17 13:05:51;;;;;;;31.07;17.83;;;0.00;99.90;;;;;;10437183;28;20247;-76
2022/12/17 13:10:53;;;;;;;32.53;19.33;;;-0.40;99.90;;;;;;10429341;28;20684;-76
2022/12/17 13:15:58;;;;;;;30.17;18.10;;;-0.40;99.90;;;;;;10436556;28;20247;-77
2022/12/17 13:21:14;;;;;;;33.20;19.03;;;-0.60;99.90;;;;;;10437338;28;20266;-76
2022/12/17 13:26:37;;;;;;;31.60;19.37;;;-0.40;99.90;;;;;;10429297;28;21012;-77
2022/12/17 13:31:55;;;;;;;33.93;19.63;;;-0.40;99.90;;;;;;10437877;28;20289;-76
2022/12/17 13:37:06;;;;;;;31.00;19.43;;;-0.50;99.90;;;;;;10436085;28;20223;-77
2022/12/17 13:42:27;;;;;;;32.10;19.53;;;-0.50;99.90;;;;;;10429256;28;20381;-76
2022/12/17 13:47:34;;;;;;;33.13;19.27;;;-0.60;99.90;;;;;;10431464;28;20714;-78
2022/12/17 13:52:34;;;;;;;34.70;19.87;;;-0.80;99.90;;;;;;10440900;28;20216;-76
2022/12/17 13:57:43;;;;;;;36.50;20.50;;;-0.90;99.90;;;;;;10433766;28;20632;-76
2022/12/17 14:02:44;;;;;;;31.03;17.77;;;-1.40;99.90;;;;;;10442260;28;20249;-77
2022/12/17 14:07:44;;;;;;;32.77;18.00;;;-1.60;99.90;;;;;;10428276;28;20250;-75
2022/12/17 14:12:46;;;;;;;39.87;21.20;;;-1.70;99.90;;;;;;10439410;28;20695;-75
2022/12/17 14:17:48;;;;;;;31.80;19.10;;;-1.60;99.90;;;;;;10428537;28;20672;-76
2022/12/17 14:22:53;;;;;;;37.00;20.87;;;-1.70;99.90;;;;;;10431560;28;20231;-76
2022/12/17 14:27:59;;;;;;;36.40;21.73;;;-1.70;99.90;;;;;;10434476;28;20220;-75
2022/12/17 14:33:00;;;;;;;38.23;22.03;;;-1.80;99.90;;;;;;10427167;28;20217;-77
2022/12/17 14:38:01;;;;;;;38.83;20.57;;;-1.90;99.90;;;;;;10435574;28;20261;-76
2022/12/17 14:43:02;;;;;;;37.33;20.97;;;-1.80;99.90;;;;;;10435545;28;20224;-76
2022/12/17 14:48:14;;;;;;;38.93;21.60;;;-1.90;99.90;;;;;;10468250;28;20578;-76
2022/12/17 14:53:25;;;;;;;34.67;20.47;;;-2.00;99.90;;;;;;10468735;28;20285;-77
2022/12/17 14:58:26;;;;;;;37.67;20.90;;;-2.00;99.90;;;;;;10465107;28;20247;-77
2022/12/17 15:03:47;;;;;;;35.13;18.80;;;-2.10;99.90;;;;;;10463340;28;20228;-77
2022/12/17 15:08:49;;;;;;;33.90;19.03;;;-2.00;99.90;;;;;;10464985;28;20219;-76
2022/12/17 15:13:49;;;;;;;35.67;20.03;;;-2.00;99.90;;;;;;10459658;28;20300;-76
2022/12/17 15:18:50;;;;;;;67.10;35.07;;;-2.10;99.90;;;;;;10460121;28;20212;-77
2022/12/17 15:23:51;;;;;;;38.27;20.07;;;-2.00;99.90;;;;;;10466759;28;20929;-77
2022/12/17 15:28:58;;;;;;;36.80;20.67;;;-2.00;99.90;;;;;;10460152;28;20223;-77
2022/12/17 15:33:58;;;;;;;32.20;18.73;;;-2.00;99.90;;;;;;10466684;28;20219;-78
2022/12/17 15:38:59;;;;;;;37.97;20.37;;;-2.10;99.90;;;;;;10467335;28;20210;-77
2022/12/17 15:43:59;;;;;;;34.60;19.53;;;-2.30;99.90;;;;;;10464985;28;20229;-76
2022/12/17 15:49:01;;;;;;;41.90;21.77;;;-2.40;99.90;;;;;;10458884;28;20621;-77
2022/12/17 15:54:01;;;;;;;41.93;21.73;;;-2.50;99.90;;;;;;10474568;28;20714;-76
2022/12/17 15:59:02;;;;;;;41.30;21.30;;;-2.60;99.90;;;;;;10431730;28;20219;-76
2022/12/17 16:04:03;;;;;;;41.20;21.33;;;-2.60;99.90;;;;;;10432494;28;20255;-76
2022/12/17 16:09:03;;;;;;;42.47;21.63;;;-2.70;99.90;;;;;;10438373;28;20728;-76
2022/12/17 16:14:04;;;;;;;43.83;22.40;;;-2.80;99.90;;;;;;10438976;28;20217;-76
2022/12/17 16:19:04;;;;;;;45.00;21.60;;;-2.80;99.90;;;;;;10437242;28;20215;-74
2022/12/17 16:24:09;;;;;;;42.33;22.10;;;-2.80;99.90;;;;;;10430648;28;20286;-76
2022/12/17 16:29:10;;;;;;;42.07;20.30;;;-2.80;99.90;;;;;;10441258;28;20630;-76
2022/12/17 16:34:12;;;;;;;41.90;21.97;;;-2.80;99.90;;;;;;10431204;28;20228;-76
2022/12/17 16:39:17;;;;;;;41.87;22.43;;;-2.90;99.90;;;;;;10435192;28;20304;-75
2022/12/17 16:44:17;;;;;;;40.80;20.33;;;-2.80;99.90;;;;;;10431545;28;20663;-77
2022/12/17 16:49:22;;;;;;;44.33;23.10;;;-2.70;99.90;;;;;;10433668;28;20223;-76
2022/12/17 16:54:26;;;;;;;39.17;21.63;;;-2.70;99.90;;;;;;10430901;28;20723;-76
2022/12/17 16:59:26;;;;;;;39.10;20.40;;;-2.70;99.90;;;;;;10432582;28;20248;-76
2022/12/17 17:04:27;;;;;;;39.90;21.80;;;-2.80;99.90;;;;;;10432369;28;20260;-76
2022/12/17 17:09:28;;;;;;;44.47;21.63;;;-2.90;99.90;;;;;;10431442;28;20224;-77
2022/12/17 17:14:32;;;;;;;43.90;21.43;;;-2.90;99.90;;;;;;10431585;28;20223;-78
2022/12/17 17:19:32;;;;;;;42.60;20.77;;;-3.00;99.90;;;;;;10430112;28;20756;-77
2022/12/17 17:24:33;;;;;;;47.53;22.87;;;-3.00;99.90;;;;;;10432501;28;20306;-77
2022/12/17 17:29:36;;;;;;;41.37;20.50;;;-3.20;99.90;;;;;;10437575;28;20232;-76
2022/12/17 17:34:38;;;;;;;46.90;22.70;;;-3.20;99.90;;;;;;10431800;28;20278;-79
2022/12/17 17:39:40;;;;;;;43.77;21.43;;;-3.20;99.90;;;;;;10412225;28;20227;-76
2022/12/17 17:44:40;;;;;;;42.07;21.40;;;-3.30;99.90;;;;;;10432652;28;20228;-78
2022/12/17 17:49:45;;;;;;;44.77;21.47;;;-3.40;99.90;;;;;;10442365;28;20586;-79
2022/12/17 17:54:46;;;;;;;47.53;23.20;;;-3.50;99.90;;;;;;10434833;28;20231;-79
2022/12/17 17:59:47;;;;;;;38.43;20.93;;;-3.60;99.90;;;;;;10428363;28;20301;-78
2022/12/17 18:04:47;;;;;;;39.47;20.43;;;-3.60;99.90;;;;;;10438571;28;20298;-78
2022/12/17 18:09:48;;;;;;;44.63;21.77;;;-3.60;99.90;;;;;;10427081;28;20683;-77
2022/12/17 18:14:50;;;;;;;39.13;21.07;;;-3.80;99.90;;;;;;10426299;28;20228;-77
2022/12/17 18:19:50;;;;;;;49.07;23.33;;;-3.80;99.90;;;;;;10425305;28;20229;-77
2022/12/17 18:24:51;;;;;;;44.33;22.37;;;-3.80;99.90;;;;;;10433861;28;20224;-78
2022/12/17 18:29:51;;;;;;;42.40;21.93;;;-3.80;99.90;;;;;;10433287;28;20313;-79
2022/12/17 18:34:52;;;;;;;46.23;21.47;;;-3.90;99.90;;;;;;10432192;28;20670;-78
2022/12/17 18:39:52;;;;;;;41.33;21.67;;;-4.00;99.90;;;;;;10424810;28;20224;-75
2022/12/17 18:44:53;;;;;;;42.33;20.93;;;-4.00;99.90;;;;;;10432395;28;20231;-77
2022/12/17 18:49:53;;;;;;;42.00;20.70;;;-4.00;99.90;;;;;;10425394;28;20225;-77
2022/12/17 18:54:54;;;;;;;38.37;19.73;;;-4.10;99.90;;;;;;10432500;28;20228;-77
2022/12/17 18:59:55;;;;;;;38.37;19.77;;;-4.10;99.90;;;;;;10424557;28;20569;-77
2022/12/17 19:04:56;;;;;;;43.30;20.77;;;-4.10;99.90;;;;;;10430878;28;20312;-77
2022/12/17 19:09:56;;;;;;;43.53;21.73;;;-4.00;99.90;;;;;;10433435;28;20310;-77
2022/12/17 19:14:57;;;;;;;43.03;21.03;;;-4.10;99.90;;;;;;10424359;28;20228;-78
2022/12/17 19:19:57;;;;;;;46.77;20.77;;;-4.10;99.90;;;;;;10425287;28;20585;-75
2022/12/17 19:24:58;;;;;;;44.67;20.47;;;-4.10;99.90;;;;;;10423123;28;20748;-76
2022/12/17 19:30:01;;;;;;;43.83;22.13;;;-4.20;99.90;;;;;;10422922;28;20224;-76
2022/12/17 19:35:02;;;;;;;48.03;22.73;;;-4.20;99.90;;;;;;10442368;28;20252;-76
2022/12/17 19:40:03;;;;;;;45.07;21.13;;;-4.30;99.90;;;;;;10437863;28;20239;-74
2022/12/17 19:45:04;;;;;;;53.37;23.77;;;-4.30;99.90;;;;;;10443390;28;20258;-76
2022/12/17 19:50:05;;;;;;;43.53;21.77;;;-4.30;99.90;;;;;;10438925;28;20217;-76
2022/12/17 19:55:06;;;;;;;46.83;22.73;;;-4.20;99.90;;;;;;10431138;28;20247;-75
2022/12/17 20:00:07;;;;;;;44.87;21.23;;;-4.20;99.90;;;;;;10431092;28;20187;-78
2022/12/17 20:05:08;;;;;;;43.77;21.93;;;-4.20;99.90;;;;;;10445651;28;20215;-77
2022/12/17 20:10:08;;;;;;;45.90;21.20;;;-4.20;99.90;;;;;;10432133;28;20217;-76
2022/12/17 20:15:09;;;;;;;42.20;20.67;;;-4.20;99.90;;;;;;10438151;28;20642;-77
2022/12/17 20:20:10;;;;;;;42.97;21.53;;;-4.30;99.90;;;;;;10444494;28;20184;-76
2022/12/17 20:25:11;;;;;;;47.17;22.30;;;-4.20;99.90;;;;;;10431846;28;20271;-76
2022/12/17 20:30:11;;;;;;;42.63;22.17;;;-4.30;99.90;;;;;;10435631;28;20245;-76
2022/12/17 20:35:12;;;;;;;45.53;22.03;;;-4.30;99.90;;;;;;10438539;28;20272;-76
2022/12/17 20:40:13;;;;;;;46.73;22.13;;;-4.30;99.90;;;;;;10435602;28;20172;-77
2022/12/17 20:45:13;;;;;;;45.17;21.13;;;-4.40;99.90;;;;;;10428032;28;20207;-76
2022/12/17 20:50:14;;;;;;;45.10;21.17;;;-4.40;99.90;;;;;;10430386;28;20188;-74
2022/12/17 20:55:14;;;;;;;39.33;19.73;;;-4.40;99.90;;;;;;10433870;28;20760;-76
2022/12/17 21:00:18;;;;;;;41.40;20.33;;;-4.30;99.90;;;;;;10430599;28;20559;-76
2022/12/17 21:05:18;;;;;;;45.10;21.93;;;-4.30;99.90;;;;;;10432594;28;20195;-77
2022/12/17 21:10:19;;;;;;;42.20;21.43;;;-4.30;99.90;;;;;;10431054;28;20194;-77
2022/12/17 21:15:20;;;;;;;40.73;19.97;;;-4.40;99.90;;;;;;10431553;28;20217;-79
2022/12/17 21:20:21;;;;;;;39.13;19.47;;;-4.50;99.90;;;;;;10431295;28;20560;-77
2022/12/17 21:25:27;;;;;;;40.13;20.33;;;-4.60;99.90;;;;;;10434170;28;20184;-77
2022/12/17 21:30:27;;;;;;;39.43;19.83;;;-4.60;99.90;;;;;;10435228;28;20242;-76
2022/12/17 21:35:28;;;;;;;38.63;20.00;;;-4.60;99.90;;;;;;10429191;28;20232;-77
2022/12/17 21:40:28;;;;;;;38.90;20.23;;;-4.60;99.90;;;;;;10429060;28;20223;-76
2022/12/17 21:45:37;;;;;;;40.47;20.17;;;-4.60;99.90;;;;;;10429418;28;20703;-77
2022/12/17 21:50:43;;;;;;;37.60;20.10;;;-4.70;99.90;;;;;;10434934;28;20216;-76
2022/12/17 21:55:43;;;;;;;41.10;20.77;;;-4.80;99.90;;;;;;10438512;28;20614;-76
2022/12/17 22:00:44;;;;;;;39.93;20.43;;;-4.90;99.90;;;;;;10427115;28;20357;-76
2022/12/17 22:05:44;;;;;;;41.13;21.43;;;-5.00;99.90;;;;;;10431489;28;20747;-76
2022/12/17 22:10:45;;;;;;;40.03;18.73;;;-5.00;99.90;;;;;;10416856;28;20220;-78
2022/12/17 22:15:45;;;;;;;43.43;20.47;;;-5.10;99.90;;;;;;10438590;28;20515;-75
2022/12/17 22:21:02;;;;;;;38.43;19.07;;;-5.10;99.90;;;;;;10433557;28;20583;-78
2022/12/17 22:26:08;;;;;;;41.03;20.50;;;-5.10;99.90;;;;;;10425587;28;20584;-77
2022/12/17 22:36:32;;;;;;;38.77;19.10;;;-5.40;99.90;;;;;;10428560;28;20220;-76
2022/12/17 22:46:55;;;;;;;38.17;20.07;;;-5.60;99.90;;;;;;10426039;28;20232;-76
2022/12/17 22:51:55;;;;;;;39.07;19.53;;;-5.70;99.90;;;;;;10430962;28;20231;-77
2022/12/17 22:56:56;;;;;;;42.30;19.93;;;-5.80;99.90;;;;;;10424400;28;20243;-75
2022/12/17 23:01:57;;;;;;;39.17;20.33;;;-5.80;99.90;;;;;;10431819;28;20705;-77
2022/12/17 23:06:58;;;;;;;41.53;19.80;;;-5.90;99.90;;;;;;10426977;28;20228;-76
2022/12/17 23:12:49;;;;;;;40.27;19.00;;;-5.90;99.90;;;;;;10440718;28;20301;-75
2022/12/17 23:17:19;;;;;;;36.33;19.00;;;-5.90;99.90;;;;;;10434642;28;20224;-77
2022/12/17 23:22:19;;;;;;;41.97;19.90;;;-5.90;99.90;;;;;;10436878;28;20223;-76
2022/12/17 23:27:20;;;;;;;42.20;19.70;;;-5.90;99.90;;;;;;10438028;28;20315;-77
2022/12/17 23:32:21;;;;;;;42.57;19.97;;;-6.00;99.90;;;;;;10434355;28;20937;-77
2022/12/17 23:37:21;;;;;;;47.67;20.87;;;-5.90;99.90;;;;;;10436144;28;20692;-76
2022/12/17 23:42:22;;;;;;;39.47;20.17;;;-5.90;99.90;;;;;;10432853;28;20227;-75
2022/12/17 23:47:23;;;;;;;41.23;19.70;;;-5.90;99.90;;;;;;10442708;28;20353;-76
2022/12/17 23:52:23;;;;;;;39.17;20.20;;;-5.90;99.90;;;;;;10434902;28;20231;-77
2022/12/17 23:57:24;;;;;;;42.97;20.63;;;-5.90;99.90;;;;;;10441262;28;20232;-76
